sensor_id;sensor_type;location;lat;lon;timestamp;P1;durP1;ratioP1;P2;durP2;ratioP2
45909;SDS011;31622;55.416;37.840;2023-06-26T00:02:20;7.70;;;5.35;;
45909;SDS011;31622;55.416;37.840;2023-06-26T00:04:46;7.97;;;5.35;;
45909;SDS011;31622;55.416;37.840;2023-06-26T00:07:11;7.22;;;5.70;;
45909;SDS011;31622;55.416;37.840;2023-06-26T00:09:37;11.90;;;6.13;;
45909;SDS011;31622;55.416;37.840;2023-06-26T00:12:03;9.20;;;5.93;;
45909;SDS011;31622;55.416;37.840;2023-06-26T00:14:29;15.02;;;6.20;;
45909;SDS011;31622;55.416;37.840;2023-06-26T00:16:55;16.17;;;6.13;;
45909;SDS011;31622;55.416;37.840;2023-06-26T00:19:20;12.77;;;6.53;;
45909;SDS011;31622;55.416;37.840;2023-06-26T00:21:46;11.60;;;7.25;;
45909;SDS011;31622;55.416;37.840;2023-06-26T00:24:16;10.95;;;6.95;;
45909;SDS011;31622;55.416;37.840;2023-06-26T00:26:42;11.93;;;6.88;;
45909;SDS011;31622;55.416;37.840;2023-06-26T00:29:08;13.95;;;7.05;;
45909;SDS011;31622;55.416;37.840;2023-06-26T00:31:34;11.85;;;7.45;;
45909;SDS011;31622;55.416;37.840;2023-06-26T00:34:05;12.52;;;7.07;;
45909;SDS011;31622;55.416;37.840;2023-06-26T00:36:31;13.55;;;7.32;;
45909;SDS011;31622;55.416;37.840;2023-06-26T00:38:56;11.73;;;6.95;;
45909;SDS011;31622;55.416;37.840;2023-06-26T00:41:22;12.15;;;6.78;;
45909;SDS011;31622;55.416;37.840;2023-06-26T00:43:49;11.05;;;7.38;;
45909;SDS011;31622;55.416;37.840;2023-06-26T00:46:16;13.55;;;6.93;;
45909;SDS011;31622;55.416;37.840;2023-06-26T00:48:42;10.60;;;6.95;;
45909;SDS011;31622;55.416;37.840;2023-06-26T00:51:08;9.02;;;7.32;;
45909;SDS011;31622;55.416;37.840;2023-06-26T00:53:34;10.80;;;7.18;;
45909;SDS011;31622;55.416;37.840;2023-06-26T00:56:00;14.48;;;7.75;;
45909;SDS011;31622;55.416;37.840;2023-06-26T00:58:28;11.65;;;7.57;;
45909;SDS011;31622;55.416;37.840;2023-06-26T01:00:56;11.30;;;7.45;;
45909;SDS011;31622;55.416;37.840;2023-06-26T01:03:22;9.68;;;7.43;;
45909;SDS011;31622;55.416;37.840;2023-06-26T01:05:48;11.93;;;7.53;;
45909;SDS011;31622;55.416;37.840;2023-06-26T01:08:16;10.73;;;6.80;;
45909;SDS011;31622;55.416;37.840;2023-06-26T01:10:43;11.57;;;7.13;;
45909;SDS011;31622;55.416;37.840;2023-06-26T01:13:10;11.02;;;7.55;;
45909;SDS011;31622;55.416;37.840;2023-06-26T01:15:37;12.27;;;7.15;;
45909;SDS011;31622;55.416;37.840;2023-06-26T01:18:03;9.82;;;7.18;;
45909;SDS011;31622;55.416;37.840;2023-06-26T01:20:32;12.15;;;7.47;;
45909;SDS011;31622;55.416;37.840;2023-06-26T01:23:12;12.02;;;7.45;;
45909;SDS011;31622;55.416;37.840;2023-06-26T01:28:17;11.52;;;7.45;;
45909;SDS011;31622;55.416;37.840;2023-06-26T01:30:45;10.60;;;6.80;;
45909;SDS011;31622;55.416;37.840;2023-06-26T01:33:11;11.50;;;7.47;;
45909;SDS011;31622;55.416;37.840;2023-06-26T01:35:38;11.90;;;7.40;;
45909;SDS011;31622;55.416;37.840;2023-06-26T01:38:11;11.43;;;7.40;;
45909;SDS011;31622;55.416;37.840;2023-06-26T01:40:37;11.02;;;6.85;;
45909;SDS011;31622;55.416;37.840;2023-06-26T01:43:03;12.60;;;7.60;;
45909;SDS011;31622;55.416;37.840;2023-06-26T01:45:33;11.20;;;7.03;;
45909;SDS011;31622;55.416;37.840;2023-06-26T01:47:58;11.88;;;7.65;;
45909;SDS011;31622;55.416;37.840;2023-06-26T01:50:28;10.93;;;7.65;;
45909;SDS011;31622;55.416;37.840;2023-06-26T01:55:32;9.02;;;7.15;;
45909;SDS011;31622;55.416;37.840;2023-06-26T01:58:02;9.43;;;7.28;;
45909;SDS011;31622;55.416;37.840;2023-06-26T02:00:29;8.63;;;7.25;;
45909;SDS011;31622;55.416;37.840;2023-06-26T02:02:55;13.20;;;7.43;;
45909;SDS011;31622;55.416;37.840;2023-06-26T02:05:20;9.60;;;7.07;;
45909;SDS011;31622;55.416;37.840;2023-06-26T02:07:46;9.57;;;6.93;;
45909;SDS011;31622;55.416;37.840;2023-06-26T02:10:12;13.68;;;7.55;;
45909;SDS011;31622;55.416;37.840;2023-06-26T02:12:37;10.57;;;7.90;;
45909;SDS011;31622;55.416;37.840;2023-06-26T02:15:04;12.93;;;7.53;;
45909;SDS011;31622;55.416;37.840;2023-06-26T02:17:32;9.20;;;6.75;;
45909;SDS011;31622;55.416;37.840;2023-06-26T02:19:57;10.45;;;7.22;;
45909;SDS011;31622;55.416;37.840;2023-06-26T02:22:23;10.77;;;7.38;;
45909;SDS011;31622;55.416;37.840;2023-06-26T02:24:49;9.40;;;7.43;;
45909;SDS011;31622;55.416;37.840;2023-06-26T02:27:14;9.68;;;6.57;;
45909;SDS011;31622;55.416;37.840;2023-06-26T02:29:40;9.52;;;7.07;;
45909;SDS011;31622;55.416;37.840;2023-06-26T02:32:07;10.10;;;6.65;;
45909;SDS011;31622;55.416;37.840;2023-06-26T02:34:33;8.32;;;6.85;;
45909;SDS011;31622;55.416;37.840;2023-06-26T02:37:00;8.60;;;6.53;;
45909;SDS011;31622;55.416;37.840;2023-06-26T02:39:26;9.20;;;6.90;;
45909;SDS011;31622;55.416;37.840;2023-06-26T02:41:52;8.27;;;6.45;;
45909;SDS011;31622;55.416;37.840;2023-06-26T02:44:19;9.38;;;7.13;;
45909;SDS011;31622;55.416;37.840;2023-06-26T02:46:46;11.30;;;7.63;;
45909;SDS011;31622;55.416;37.840;2023-06-26T02:49:12;7.85;;;6.50;;
45909;SDS011;31622;55.416;37.840;2023-06-26T02:51:38;9.45;;;6.97;;
45909;SDS011;31622;55.416;37.840;2023-06-26T02:54:11;11.45;;;7.10;;
45909;SDS011;31622;55.416;37.840;2023-06-26T02:56:37;8.82;;;6.68;;
45909;SDS011;31622;55.416;37.840;2023-06-26T02:59:03;8.27;;;6.68;;
45909;SDS011;31622;55.416;37.840;2023-06-26T03:01:29;9.73;;;7.20;;
45909;SDS011;31622;55.416;37.840;2023-06-26T03:03:54;10.88;;;7.53;;
45909;SDS011;31622;55.416;37.840;2023-06-26T03:06:20;10.38;;;6.93;;
45909;SDS011;31622;55.416;37.840;2023-06-26T03:08:46;11.95;;;7.25;;
45909;SDS011;31622;55.416;37.840;2023-06-26T03:11:14;8.88;;;7.07;;
45909;SDS011;31622;55.416;37.840;2023-06-26T03:13:39;11.10;;;7.50;;
45909;SDS011;31622;55.416;37.840;2023-06-26T03:16:05;10.60;;;7.00;;
45909;SDS011;31622;55.416;37.840;2023-06-26T03:18:31;9.43;;;7.38;;
45909;SDS011;31622;55.416;37.840;2023-06-26T03:20:58;8.43;;;6.07;;
45909;SDS011;31622;55.416;37.840;2023-06-26T03:23:25;10.55;;;7.43;;
45909;SDS011;31622;55.416;37.840;2023-06-26T03:25:51;12.52;;;7.00;;
45909;SDS011;31622;55.416;37.840;2023-06-26T03:28:24;9.23;;;6.90;;
45909;SDS011;31622;55.416;37.840;2023-06-26T03:30:50;10.20;;;7.38;;
45909;SDS011;31622;55.416;37.840;2023-06-26T03:33:16;11.73;;;7.47;;
45909;SDS011;31622;55.416;37.840;2023-06-26T03:35:43;8.13;;;6.82;;
45909;SDS011;31622;55.416;37.840;2023-06-26T03:38:11;9.43;;;7.25;;
45909;SDS011;31622;55.416;37.840;2023-06-26T03:40:37;9.43;;;7.10;;
45909;SDS011;31622;55.416;37.840;2023-06-26T03:43:02;10.55;;;7.18;;
45909;SDS011;31622;55.416;37.840;2023-06-26T03:45:36;13.95;;;7.85;;
45909;SDS011;31622;55.416;37.840;2023-06-26T03:48:03;11.98;;;7.75;;
45909;SDS011;31622;55.416;37.840;2023-06-26T03:50:29;8.85;;;6.95;;
45909;SDS011;31622;55.416;37.840;2023-06-26T03:52:55;10.82;;;7.25;;
45909;SDS011;31622;55.416;37.840;2023-06-26T03:55:20;10.18;;;7.18;;
45909;SDS011;31622;55.416;37.840;2023-06-26T03:57:47;9.93;;;7.05;;
45909;SDS011;31622;55.416;37.840;2023-06-26T04:00:13;9.75;;;7.25;;
45909;SDS011;31622;55.416;37.840;2023-06-26T04:02:42;9.82;;;6.45;;
45909;SDS011;31622;55.416;37.840;2023-06-26T04:05:10;9.20;;;7.10;;
45909;SDS011;31622;55.416;37.840;2023-06-26T04:07:37;11.80;;;8.52;;
45909;SDS011;31622;55.416;37.840;2023-06-26T04:10:04;14.55;;;7.95;;
45909;SDS011;31622;55.416;37.840;2023-06-26T04:12:32;10.80;;;7.47;;
45909;SDS011;31622;55.416;37.840;2023-06-26T04:14:58;10.48;;;8.00;;
45909;SDS011;31622;55.416;37.840;2023-06-26T04:17:23;10.40;;;7.75;;
45909;SDS011;31622;55.416;37.840;2023-06-26T04:19:49;11.15;;;7.75;;
45909;SDS011;31622;55.416;37.840;2023-06-26T04:22:14;8.93;;;7.70;;
45909;SDS011;31622;55.416;37.840;2023-06-26T04:24:40;13.15;;;8.43;;
45909;SDS011;31622;55.416;37.840;2023-06-26T04:27:06;10.77;;;7.43;;
45909;SDS011;31622;55.416;37.840;2023-06-26T04:29:31;14.27;;;7.72;;
45909;SDS011;31622;55.416;37.840;2023-06-26T04:31:57;8.73;;;7.28;;
45909;SDS011;31622;55.416;37.840;2023-06-26T04:34:24;9.65;;;7.10;;
45909;SDS011;31622;55.416;37.840;2023-06-26T04:36:50;10.05;;;6.88;;
45909;SDS011;31622;55.416;37.840;2023-06-26T04:39:16;8.88;;;7.10;;
45909;SDS011;31622;55.416;37.840;2023-06-26T04:41:42;11.35;;;7.88;;
45909;SDS011;31622;55.416;37.840;2023-06-26T04:44:09;12.15;;;7.28;;
45909;SDS011;31622;55.416;37.840;2023-06-26T04:46:34;11.00;;;8.45;;
45909;SDS011;31622;55.416;37.840;2023-06-26T04:49:00;13.05;;;9.13;;
45909;SDS011;31622;55.416;37.840;2023-06-26T04:51:28;20.05;;;12.50;;
45909;SDS011;31622;55.416;37.840;2023-06-26T04:53:54;22.67;;;11.52;;
45909;SDS011;31622;55.416;37.840;2023-06-26T04:56:19;18.67;;;10.85;;
45909;SDS011;31622;55.416;37.840;2023-06-26T04:58:45;15.98;;;9.80;;
45909;SDS011;31622;55.416;37.840;2023-06-26T05:01:11;13.02;;;8.73;;
45909;SDS011;31622;55.416;37.840;2023-06-26T05:03:38;11.10;;;7.97;;
45909;SDS011;31622;55.416;37.840;2023-06-26T05:06:04;11.13;;;7.85;;
45909;SDS011;31622;55.416;37.840;2023-06-26T05:08:31;11.07;;;7.22;;
45909;SDS011;31622;55.416;37.840;2023-06-26T05:10:56;7.90;;;7.10;;
45909;SDS011;31622;55.416;37.840;2023-06-26T05:13:23;8.45;;;7.22;;
45909;SDS011;31622;55.416;37.840;2023-06-26T05:15:50;7.65;;;6.70;;
45909;SDS011;31622;55.416;37.840;2023-06-26T05:18:17;8.70;;;7.18;;
45909;SDS011;31622;55.416;37.840;2023-06-26T05:20:42;8.63;;;7.20;;
45909;SDS011;31622;55.416;37.840;2023-06-26T05:23:08;8.88;;;7.68;;
45909;SDS011;31622;55.416;37.840;2023-06-26T05:25:36;10.88;;;7.55;;
45909;SDS011;31622;55.416;37.840;2023-06-26T05:28:02;8.40;;;7.53;;
45909;SDS011;31622;55.416;37.840;2023-06-26T05:30:30;8.93;;;7.57;;
45909;SDS011;31622;55.416;37.840;2023-06-26T05:32:56;9.82;;;8.40;;
45909;SDS011;31622;55.416;37.840;2023-06-26T05:35:25;9.75;;;8.25;;
45909;SDS011;31622;55.416;37.840;2023-06-26T05:37:54;12.75;;;8.27;;
45909;SDS011;31622;55.416;37.840;2023-06-26T05:40:20;9.50;;;7.53;;
45909;SDS011;31622;55.416;37.840;2023-06-26T05:42:46;9.27;;;8.02;;
45909;SDS011;31622;55.416;37.840;2023-06-26T05:45:12;17.77;;;8.25;;
45909;SDS011;31622;55.416;37.840;2023-06-26T05:47:38;12.65;;;7.93;;
45909;SDS011;31622;55.416;37.840;2023-06-26T05:50:03;8.65;;;7.72;;
45909;SDS011;31622;55.416;37.840;2023-06-26T05:52:30;8.80;;;7.32;;
45909;SDS011;31622;55.416;37.840;2023-06-26T05:54:56;11.40;;;7.32;;
45909;SDS011;31622;55.416;37.840;2023-06-26T05:57:25;9.00;;;7.68;;
45909;SDS011;31622;55.416;37.840;2023-06-26T05:59:52;11.10;;;9.30;;
45909;SDS011;31622;55.416;37.840;2023-06-26T06:02:18;12.57;;;10.02;;
45909;SDS011;31622;55.416;37.840;2023-06-26T06:04:44;13.80;;;10.77;;
45909;SDS011;31622;55.416;37.840;2023-06-26T06:07:09;14.52;;;11.80;;
45909;SDS011;31622;55.416;37.840;2023-06-26T06:09:35;13.18;;;11.35;;
45909;SDS011;31622;55.416;37.840;2023-06-26T06:12:01;14.73;;;12.38;;
45909;SDS011;31622;55.416;37.840;2023-06-26T06:14:28;13.73;;;10.95;;
45909;SDS011;31622;55.416;37.840;2023-06-26T06:16:54;17.55;;;12.98;;
45909;SDS011;31622;55.416;37.840;2023-06-26T06:19:20;20.35;;;14.48;;
45909;SDS011;31622;55.416;37.840;2023-06-26T06:21:45;21.48;;;13.55;;
45909;SDS011;31622;55.416;37.840;2023-06-26T06:24:11;19.42;;;12.48;;
45909;SDS011;31622;55.416;37.840;2023-06-26T06:26:37;19.95;;;13.00;;
45909;SDS011;31622;55.416;37.840;2023-06-26T06:29:02;20.67;;;14.02;;
45909;SDS011;31622;55.416;37.840;2023-06-26T06:31:28;27.48;;;13.55;;
45909;SDS011;31622;55.416;37.840;2023-06-26T06:33:54;22.30;;;13.40;;
45909;SDS011;31622;55.416;37.840;2023-06-26T06:36:20;17.50;;;12.15;;
45909;SDS011;31622;55.416;37.840;2023-06-26T06:38:45;15.95;;;10.35;;
45909;SDS011;31622;55.416;37.840;2023-06-26T06:41:11;14.57;;;9.85;;
45909;SDS011;31622;55.416;37.840;2023-06-26T06:43:37;12.18;;;9.45;;
45909;SDS011;31622;55.416;37.840;2023-06-26T06:46:03;14.65;;;10.00;;
45909;SDS011;31622;55.416;37.840;2023-06-26T06:48:30;15.02;;;9.75;;
45909;SDS011;31622;55.416;37.840;2023-06-26T06:50:56;14.85;;;10.02;;
45909;SDS011;31622;55.416;37.840;2023-06-26T06:53:22;13.23;;;9.50;;
45909;SDS011;31622;55.416;37.840;2023-06-26T06:55:48;13.93;;;9.50;;
45909;SDS011;31622;55.416;37.840;2023-06-26T06:58:14;13.73;;;9.70;;
45909;SDS011;31622;55.416;37.840;2023-06-26T07:00:42;15.20;;;9.90;;
45909;SDS011;31622;55.416;37.840;2023-06-26T07:03:08;13.10;;;9.38;;
45909;SDS011;31622;55.416;37.840;2023-06-26T07:05:33;13.85;;;9.93;;
45909;SDS011;31622;55.416;37.840;2023-06-26T07:07:59;11.23;;;8.98;;
45909;SDS011;31622;55.416;37.840;2023-06-26T07:10:25;13.10;;;9.00;;
45909;SDS011;31622;55.416;37.840;2023-06-26T07:12:50;9.82;;;8.82;;
45909;SDS011;31622;55.416;37.840;2023-06-26T07:15:16;22.23;;;15.55;;
45909;SDS011;31622;55.416;37.840;2023-06-26T07:17:42;56.35;;;38.47;;
45909;SDS011;31622;55.416;37.840;2023-06-26T07:20:07;88.03;;;59.75;;
45909;SDS011;31622;55.416;37.840;2023-06-26T07:22:35;68.38;;;48.22;;
45909;SDS011;31622;55.416;37.840;2023-06-26T07:25:01;71.05;;;50.20;;
45909;SDS011;31622;55.416;37.840;2023-06-26T07:27:29;71.03;;;50.22;;
45909;SDS011;31622;55.416;37.840;2023-06-26T07:29:54;74.53;;;48.58;;
45909;SDS011;31622;55.416;37.840;2023-06-26T07:32:20;46.60;;;32.55;;
45909;SDS011;31622;55.416;37.840;2023-06-26T07:34:46;38.03;;;26.92;;
45909;SDS011;31622;55.416;37.840;2023-06-26T07:37:11;51.00;;;34.58;;
45909;SDS011;31622;55.416;37.840;2023-06-26T07:39:37;40.85;;;29.40;;
45909;SDS011;31622;55.416;37.840;2023-06-26T07:42:03;28.63;;;21.30;;
45909;SDS011;31622;55.416;37.840;2023-06-26T07:44:28;27.90;;;18.77;;
45909;SDS011;31622;55.416;37.840;2023-06-26T07:46:54;23.42;;;16.60;;
45909;SDS011;31622;55.416;37.840;2023-06-26T07:49:20;17.73;;;13.60;;
45909;SDS011;31622;55.416;37.840;2023-06-26T07:51:45;13.95;;;10.75;;
45909;SDS011;31622;55.416;37.840;2023-06-26T07:54:11;13.18;;;9.45;;
45909;SDS011;31622;55.416;37.840;2023-06-26T07:57:12;15.10;;;7.70;;
45909;SDS011;31622;55.416;37.840;2023-06-26T07:59:32;11.20;;;7.68;;
45909;SDS011;31622;55.416;37.840;2023-06-26T08:01:58;8.93;;;6.93;;
45909;SDS011;31622;55.416;37.840;2023-06-26T08:04:26;8.45;;;6.40;;
45909;SDS011;31622;55.416;37.840;2023-06-26T08:06:56;11.15;;;7.13;;
45909;SDS011;31622;55.416;37.840;2023-06-26T08:09:23;11.52;;;6.70;;
45909;SDS011;31622;55.416;37.840;2023-06-26T08:11:49;29.95;;;9.05;;
45909;SDS011;31622;55.416;37.840;2023-06-26T08:14:15;22.55;;;7.57;;
45909;SDS011;31622;55.416;37.840;2023-06-26T08:16:42;14.02;;;7.30;;
45909;SDS011;31622;55.416;37.840;2023-06-26T08:19:14;13.57;;;7.35;;
45909;SDS011;31622;55.416;37.840;2023-06-26T08:21:41;16.35;;;8.15;;
45909;SDS011;31622;55.416;37.840;2023-06-26T08:24:07;22.55;;;11.15;;
45909;SDS011;31622;55.416;37.840;2023-06-26T08:26:33;24.90;;;11.80;;
45909;SDS011;31622;55.416;37.840;2023-06-26T08:28:59;22.20;;;11.13;;
45909;SDS011;31622;55.416;37.840;2023-06-26T08:31:25;50.85;;;16.23;;
45909;SDS011;31622;55.416;37.840;2023-06-26T08:33:50;41.67;;;15.77;;
45909;SDS011;31622;55.416;37.840;2023-06-26T08:36:17;39.67;;;15.05;;
45909;SDS011;31622;55.416;37.840;2023-06-26T08:38:43;52.28;;;16.83;;
45909;SDS011;31622;55.416;37.840;2023-06-26T08:41:09;78.03;;;25.65;;
45909;SDS011;31622;55.416;37.840;2023-06-26T08:43:35;51.95;;;18.67;;
45909;SDS011;31622;55.416;37.840;2023-06-26T08:46:01;53.40;;;18.65;;
45909;SDS011;31622;55.416;37.840;2023-06-26T08:48:28;69.25;;;23.77;;
45909;SDS011;31622;55.416;37.840;2023-06-26T08:50:55;59.70;;;20.85;;
45909;SDS011;31622;55.416;37.840;2023-06-26T08:56:06;47.47;;;15.68;;
45909;SDS011;31622;55.416;37.840;2023-06-26T08:58:32;28.23;;;12.13;;
45909;SDS011;31622;55.416;37.840;2023-06-26T09:01:01;26.63;;;11.38;;
45909;SDS011;31622;55.416;37.840;2023-06-26T09:03:27;25.58;;;10.32;;
45909;SDS011;31622;55.416;37.840;2023-06-26T09:05:53;21.35;;;9.68;;
45909;SDS011;31622;55.416;37.840;2023-06-26T09:08:19;20.42;;;9.90;;
45909;SDS011;31622;55.416;37.840;2023-06-26T09:10:44;16.58;;;9.02;;
45909;SDS011;31622;55.416;37.840;2023-06-26T09:13:10;17.25;;;8.25;;
45909;SDS011;31622;55.416;37.840;2023-06-26T09:15:42;14.60;;;7.22;;
45909;SDS011;31622;55.416;37.840;2023-06-26T09:18:08;12.52;;;7.22;;
45909;SDS011;31622;55.416;37.840;2023-06-26T09:20:34;10.02;;;7.07;;
45909;SDS011;31622;55.416;37.840;2023-06-26T09:23:00;7.22;;;5.75;;
45909;SDS011;31622;55.416;37.840;2023-06-26T09:25:26;9.68;;;5.72;;
45909;SDS011;31622;55.416;37.840;2023-06-26T09:27:53;10.23;;;6.90;;
45909;SDS011;31622;55.416;37.840;2023-06-26T09:30:19;8.35;;;6.13;;
45909;SDS011;31622;55.416;37.840;2023-06-26T09:32:45;7.07;;;5.38;;
45909;SDS011;31622;55.416;37.840;2023-06-26T09:35:10;8.50;;;5.82;;
45909;SDS011;31622;55.416;37.840;2023-06-26T09:37:36;8.60;;;5.72;;
45909;SDS011;31622;55.416;37.840;2023-06-26T09:40:03;6.13;;;5.20;;
45909;SDS011;31622;55.416;37.840;2023-06-26T09:42:30;7.55;;;6.05;;
45909;SDS011;31622;55.416;37.840;2023-06-26T09:44:55;7.20;;;5.60;;
45909;SDS011;31622;55.416;37.840;2023-06-26T09:47:21;8.63;;;5.72;;
45909;SDS011;31622;55.416;37.840;2023-06-26T09:49:47;6.53;;;5.20;;
45909;SDS011;31622;55.416;37.840;2023-06-26T09:52:16;6.00;;;5.18;;
45909;SDS011;31622;55.416;37.840;2023-06-26T09:54:43;6.25;;;4.80;;
45909;SDS011;31622;55.416;37.840;2023-06-26T09:57:10;6.47;;;5.15;;
45909;SDS011;31622;55.416;37.840;2023-06-26T09:59:38;8.00;;;5.20;;
45909;SDS011;31622;55.416;37.840;2023-06-26T10:02:05;6.25;;;4.63;;
45909;SDS011;31622;55.416;37.840;2023-06-26T10:04:31;5.50;;;5.00;;
45909;SDS011;31622;55.416;37.840;2023-06-26T10:06:58;5.38;;;4.65;;
45909;SDS011;31622;55.416;37.840;2023-06-26T10:09:24;6.07;;;4.63;;
45909;SDS011;31622;55.416;37.840;2023-06-26T10:14:31;7.43;;;4.65;;
45909;SDS011;31622;55.416;37.840;2023-06-26T10:17:01;5.18;;;4.47;;
45909;SDS011;31622;55.416;37.840;2023-06-26T10:19:28;5.55;;;4.57;;
45909;SDS011;31622;55.416;37.840;2023-06-26T10:21:55;5.28;;;4.70;;
45909;SDS011;31622;55.416;37.840;2023-06-26T10:24:21;5.32;;;4.53;;
45909;SDS011;31622;55.416;37.840;2023-06-26T10:26:49;6.97;;;4.63;;
45909;SDS011;31622;55.416;37.840;2023-06-26T10:29:15;6.20;;;4.32;;
45909;SDS011;31622;55.416;37.840;2023-06-26T10:31:43;5.45;;;4.90;;
45909;SDS011;31622;55.416;37.840;2023-06-26T10:34:15;6.15;;;4.88;;
45909;SDS011;31622;55.416;37.840;2023-06-26T10:36:41;6.10;;;5.10;;
45909;SDS011;31622;55.416;37.840;2023-06-26T10:39:07;7.47;;;5.13;;
45909;SDS011;31622;55.416;37.840;2023-06-26T10:41:36;5.55;;;4.55;;
45909;SDS011;31622;55.416;37.840;2023-06-26T10:44:07;5.93;;;5.00;;
45909;SDS011;31622;55.416;37.840;2023-06-26T10:46:45;6.20;;;4.65;;
45909;SDS011;31622;55.416;37.840;2023-06-26T10:49:14;5.80;;;4.57;;
45909;SDS011;31622;55.416;37.840;2023-06-26T10:51:45;5.75;;;4.55;;
45909;SDS011;31622;55.416;37.840;2023-06-26T10:54:13;5.97;;;5.38;;
45909;SDS011;31622;55.416;37.840;2023-06-26T10:56:46;6.45;;;4.90;;
45909;SDS011;31622;55.416;37.840;2023-06-26T10:59:17;6.40;;;5.10;;
45909;SDS011;31622;55.416;37.840;2023-06-26T11:01:44;8.30;;;5.17;;
45909;SDS011;31622;55.416;37.840;2023-06-26T11:04:13;6.45;;;5.35;;
45909;SDS011;31622;55.416;37.840;2023-06-26T11:06:44;9.00;;;5.43;;
45909;SDS011;31622;55.416;37.840;2023-06-26T11:09:11;8.57;;;5.72;;
45909;SDS011;31622;55.416;37.840;2023-06-26T11:14:20;7.35;;;5.43;;
45909;SDS011;31622;55.416;37.840;2023-06-26T11:16:47;6.78;;;4.90;;
45909;SDS011;31622;55.416;37.840;2023-06-26T11:19:14;8.18;;;5.43;;
45909;SDS011;31622;55.416;37.840;2023-06-26T11:21:41;5.80;;;5.20;;
45909;SDS011;31622;55.416;37.840;2023-06-26T11:24:08;7.40;;;5.50;;
45909;SDS011;31622;55.416;37.840;2023-06-26T11:26:37;6.75;;;4.95;;
45909;SDS011;31622;55.416;37.840;2023-06-26T11:29:04;6.63;;;4.63;;
45909;SDS011;31622;55.416;37.840;2023-06-26T11:31:30;5.40;;;4.38;;
45909;SDS011;31622;55.416;37.840;2023-06-26T11:33:58;5.20;;;4.70;;
45909;SDS011;31622;55.416;37.840;2023-06-26T11:36:25;4.95;;;4.30;;
45909;SDS011;31622;55.416;37.840;2023-06-26T11:39:00;6.63;;;4.88;;
45909;SDS011;31622;55.416;37.840;2023-06-26T11:41:29;5.72;;;4.80;;
45909;SDS011;31622;55.416;37.840;2023-06-26T11:43:55;7.05;;;5.13;;
45909;SDS011;31622;55.416;37.840;2023-06-26T11:46:21;6.00;;;5.40;;
45909;SDS011;31622;55.416;37.840;2023-06-26T11:48:48;7.15;;;5.25;;
45909;SDS011;31622;55.416;37.840;2023-06-26T11:51:14;6.70;;;4.85;;
45909;SDS011;31622;55.416;37.840;2023-06-26T11:53:40;5.72;;;5.07;;
45909;SDS011;31622;55.416;37.840;2023-06-26T11:56:08;7.50;;;5.78;;
45909;SDS011;31622;55.416;37.840;2023-06-26T11:58:34;6.82;;;6.00;;
45909;SDS011;31622;55.416;37.840;2023-06-26T12:01:00;9.75;;;6.80;;
45909;SDS011;31622;55.416;37.840;2023-06-26T12:03:25;9.00;;;5.90;;
45909;SDS011;31622;55.416;37.840;2023-06-26T12:05:51;9.43;;;6.28;;
45909;SDS011;31622;55.416;37.840;2023-06-26T12:08:17;6.95;;;5.60;;
45909;SDS011;31622;55.416;37.840;2023-06-26T12:10:43;6.63;;;5.47;;
45909;SDS011;31622;55.416;37.840;2023-06-26T12:13:10;8.40;;;5.72;;
45909;SDS011;31622;55.416;37.840;2023-06-26T12:15:36;6.22;;;5.30;;
45909;SDS011;31622;55.416;37.840;2023-06-26T12:18:07;8.02;;;5.32;;
45909;SDS011;31622;55.416;37.840;2023-06-26T12:20:33;6.97;;;5.47;;
45909;SDS011;31622;55.416;37.840;2023-06-26T12:23:05;5.68;;;4.93;;
45909;SDS011;31622;55.416;37.840;2023-06-26T12:28:02;5.90;;;4.93;;
45909;SDS011;31622;55.416;37.840;2023-06-26T12:30:28;12.27;;;5.80;;
45909;SDS011;31622;55.416;37.840;2023-06-26T12:32:54;6.35;;;4.95;;
45909;SDS011;31622;55.416;37.840;2023-06-26T12:35:21;9.70;;;7.07;;
45909;SDS011;31622;55.416;37.840;2023-06-26T12:37:46;16.58;;;9.20;;
45909;SDS011;31622;55.416;37.840;2023-06-26T12:40:18;9.95;;;6.95;;
45909;SDS011;31622;55.416;37.840;2023-06-26T12:42:47;8.90;;;6.78;;
45909;SDS011;31622;55.416;37.840;2023-06-26T12:45:13;10.18;;;7.28;;
45909;SDS011;31622;55.416;37.840;2023-06-26T12:47:39;11.50;;;6.10;;
45909;SDS011;31622;55.416;37.840;2023-06-26T12:50:06;9.25;;;5.88;;
45909;SDS011;31622;55.416;37.840;2023-06-26T12:52:32;7.93;;;5.25;;
45909;SDS011;31622;55.416;37.840;2023-06-26T12:54:58;6.82;;;5.05;;
45909;SDS011;31622;55.416;37.840;2023-06-26T12:57:23;6.82;;;5.00;;
45909;SDS011;31622;55.416;37.840;2023-06-26T12:59:49;6.85;;;5.05;;
45909;SDS011;31622;55.416;37.840;2023-06-26T13:02:15;6.45;;;4.57;;
45909;SDS011;31622;55.416;37.840;2023-06-26T13:04:41;7.97;;;4.93;;
45909;SDS011;31622;55.416;37.840;2023-06-26T13:07:07;6.07;;;4.75;;
45909;SDS011;31622;55.416;37.840;2023-06-26T13:09:33;5.75;;;4.43;;
45909;SDS011;31622;55.416;37.840;2023-06-26T13:12:00;7.03;;;4.80;;
45909;SDS011;31622;55.416;37.840;2023-06-26T13:14:29;6.60;;;4.55;;
45909;SDS011;31622;55.416;37.840;2023-06-26T13:16:58;7.82;;;4.95;;
45909;SDS011;31622;55.416;37.840;2023-06-26T13:19:23;6.45;;;4.72;;
45909;SDS011;31622;55.416;37.840;2023-06-26T13:21:49;9.13;;;4.68;;
45909;SDS011;31622;55.416;37.840;2023-06-26T13:24:15;5.18;;;4.38;;
45909;SDS011;31622;55.416;37.840;2023-06-26T13:26:41;6.00;;;4.60;;
45909;SDS011;31622;55.416;37.840;2023-06-26T13:29:06;8.57;;;4.82;;
45909;SDS011;31622;55.416;37.840;2023-06-26T13:31:32;5.55;;;4.40;;
45909;SDS011;31622;55.416;37.840;2023-06-26T13:33:58;6.00;;;4.72;;
45909;SDS011;31622;55.416;37.840;2023-06-26T13:36:24;7.32;;;4.82;;
45909;SDS011;31622;55.416;37.840;2023-06-26T13:38:50;6.07;;;5.00;;
45909;SDS011;31622;55.416;37.840;2023-06-26T13:41:21;6.85;;;4.68;;
45909;SDS011;31622;55.416;37.840;2023-06-26T13:43:47;10.45;;;5.22;;
45909;SDS011;31622;55.416;37.840;2023-06-26T13:46:13;8.00;;;5.53;;
45909;SDS011;31622;55.416;37.840;2023-06-26T13:48:39;8.32;;;5.38;;
45909;SDS011;31622;55.416;37.840;2023-06-26T13:51:04;8.57;;;5.43;;
45909;SDS011;31622;55.416;37.840;2023-06-26T13:53:30;8.07;;;6.03;;
45909;SDS011;31622;55.416;37.840;2023-06-26T13:55:55;8.15;;;5.47;;
45909;SDS011;31622;55.416;37.840;2023-06-26T13:58:21;5.57;;;4.72;;
45909;SDS011;31622;55.416;37.840;2023-06-26T14:00:47;5.72;;;4.70;;
45909;SDS011;31622;55.416;37.840;2023-06-26T14:03:14;9.70;;;6.75;;
45909;SDS011;31622;55.416;37.840;2023-06-26T14:05:39;8.52;;;6.70;;
45909;SDS011;31622;55.416;37.840;2023-06-26T14:08:07;8.07;;;5.13;;
45909;SDS011;31622;55.416;37.840;2023-06-26T14:10:33;7.82;;;6.00;;
45909;SDS011;31622;55.416;37.840;2023-06-26T14:12:59;8.07;;;7.25;;
45909;SDS011;31622;55.416;37.840;2023-06-26T14:15:25;8.90;;;5.97;;
45909;SDS011;31622;55.416;37.840;2023-06-26T14:17:51;10.52;;;7.10;;
45909;SDS011;31622;55.416;37.840;2023-06-26T14:20:17;9.82;;;6.05;;
45909;SDS011;31622;55.416;37.840;2023-06-26T14:22:44;7.97;;;6.30;;
45909;SDS011;31622;55.416;37.840;2023-06-26T14:25:10;7.32;;;5.68;;
45909;SDS011;31622;55.416;37.840;2023-06-26T14:27:38;9.20;;;5.65;;
45909;SDS011;31622;55.416;37.840;2023-06-26T14:30:03;8.25;;;5.75;;
45909;SDS011;31622;55.416;37.840;2023-06-26T14:32:30;6.55;;;5.05;;
45909;SDS011;31622;55.416;37.840;2023-06-26T14:34:56;6.95;;;5.53;;
45909;SDS011;31622;55.416;37.840;2023-06-26T14:37:22;6.57;;;5.22;;
45909;SDS011;31622;55.416;37.840;2023-06-26T14:39:47;7.20;;;5.18;;